createdAt,value
2023-03-22T00:03:19.099Z,14.20
2023-03-22T00:07:25.199Z,12.15
2023-03-22T00:11:30.978Z,12.73
2023-03-22T00:15:34.454Z,10.35
2023-03-22T00:19:42.222Z,10.75
2023-03-22T00:23:45.898Z,11.43
2023-03-22T00:27:50.726Z,8.07
2023-03-22T00:31:55.024Z,14.98
2023-03-22T00:36:00.997Z,10.35
2023-03-22T00:40:04.755Z,9.18
2023-03-22T00:44:11.478Z,10.98
2023-03-22T00:48:14.586Z,11.85
2023-03-22T00:52:17.672Z,10.07
2023-03-22T00:56:29.934Z,9.60
2023-03-22T01:00:36.019Z,8.90
2023-03-22T01:04:45.876Z,14.23
2023-03-22T01:08:51.078Z,10.40
2023-03-22T01:12:54.307Z,11.85
2023-03-22T01:17:01.514Z,9.40
2023-03-22T01:21:06.039Z,8.25
2023-03-22T01:25:19.091Z,12.05
2023-03-22T01:29:27.745Z,11.93
2023-03-22T01:33:32.363Z,9.93
2023-03-22T01:37:35.771Z,12.93
2023-03-22T01:41:40.868Z,11.07
2023-03-22T01:45:46.777Z,14.45
2023-03-22T01:49:56.076Z,10.07
2023-03-22T01:54:10.280Z,11.17
2023-03-22T01:58:16.335Z,14.53
2023-03-22T02:02:22.564Z,15.17
2023-03-22T02:06:29.994Z,12.45
2023-03-22T02:10:33.178Z,13.57
2023-03-22T02:15:06.022Z,14.57
2023-03-22T02:19:42.624Z,17.73
2023-03-22T02:24:11.451Z,15.73
2023-03-22T02:28:30.833Z,11.67
2023-03-22T02:33:07.135Z,14.60
2023-03-22T02:37:35.689Z,12.07
2023-03-22T02:41:48.790Z,10.23
2023-03-22T02:45:56.475Z,12.02
2023-03-22T02:50:04.912Z,12.23
2023-03-22T02:54:15.423Z,10.48
2023-03-22T02:58:23.477Z,12.57
2023-03-22T03:02:30.987Z,12.53
2023-03-22T03:06:39.007Z,13.43
2023-03-22T03:10:42.880Z,10.37
2023-03-22T03:14:49.283Z,17.53
2023-03-22T03:19:03.342Z,14.23
2023-03-22T03:23:31.301Z,14.10
2023-03-22T03:27:39.635Z,13.63
2023-03-22T03:31:51.269Z,11.13
2023-03-22T03:35:59.768Z,17.47
2023-03-22T03:40:11.003Z,14.43
2023-03-22T03:44:14.865Z,17.00
2023-03-22T03:48:22.600Z,16.73
2023-03-22T03:52:26.945Z,17.23
2023-03-22T03:56:29.978Z,12.67
2023-03-22T04:00:34.115Z,15.63
2023-03-22T04:04:42.904Z,12.87
2023-03-22T04:08:53.871Z,17.47
2023-03-22T04:12:57.574Z,14.70
2023-03-22T04:17:05.414Z,18.80
2023-03-22T04:21:16.613Z,13.63
2023-03-22T04:25:22.847Z,19.40
2023-03-22T04:29:32.366Z,14.73
2023-03-22T04:33:39.506Z,16.23
2023-03-22T04:37:45.775Z,16.97
2023-03-22T04:41:48.832Z,15.97
2023-03-22T04:45:54.867Z,14.57
2023-03-22T04:49:58.618Z,18.97
2023-03-22T04:54:03.076Z,16.73
2023-03-22T04:58:06.172Z,13.17
2023-03-22T05:02:09.233Z,17.33
2023-03-22T05:06:13.119Z,18.60
2023-03-22T05:10:20.627Z,21.43
2023-03-22T05:14:26.176Z,16.83
2023-03-22T05:18:29.539Z,20.77
2023-03-22T05:22:34.718Z,25.30
2023-03-22T05:26:42.444Z,18.97
2023-03-22T05:30:49.571Z,18.30
2023-03-22T05:34:53.007Z,18.80
2023-03-22T05:38:56.310Z,21.93
2023-03-22T05:43:00.868Z,22.77
2023-03-22T05:47:05.019Z,23.27
2023-03-22T05:51:08.522Z,22.50
2023-03-22T05:55:13.759Z,21.43
2023-03-22T05:59:18.312Z,17.57
2023-03-22T06:03:21.393Z,20.50
2023-03-22T06:07:27.359Z,18.90
2023-03-22T06:11:33.924Z,17.53
2023-03-22T06:15:38.339Z,17.00
2023-03-22T06:19:43.422Z,19.13
2023-03-22T06:23:46.835Z,19.10
2023-03-22T06:27:50.328Z,13.17
2023-03-22T06:32:17.079Z,18.87
2023-03-22T06:36:24.405Z,19.03
2023-03-22T06:40:27.973Z,14.50
2023-03-22T06:44:31.210Z,21.17
2023-03-22T06:48:38.575Z,23.77
2023-03-22T06:52:41.833Z,15.87
2023-03-22T06:56:45.841Z,23.07
2023-03-22T07:00:49.170Z,15.77
2023-03-22T07:05:00.585Z,14.97
2023-03-22T07:09:09.914Z,23.03
2023-03-22T07:13:16.177Z,19.37
2023-03-22T07:17:24.816Z,19.20
2023-03-22T07:21:29.473Z,17.90
2023-03-22T07:25:32.802Z,20.90
2023-03-22T07:29:36.958Z,20.20
2023-03-22T07:33:48.400Z,16.20
2023-03-22T07:37:53.218Z,17.43
2023-03-22T07:41:57.604Z,17.33
2023-03-22T07:46:03.092Z,17.77
2023-03-22T07:50:07.119Z,22.10
2023-03-22T07:54:17.721Z,23.60
2023-03-22T07:58:29.065Z,20.70
2023-03-22T08:02:32.441Z,16.92
2023-03-22T08:06:37.195Z,19.13
2023-03-22T08:10:41.744Z,14.88
2023-03-22T08:14:46.436Z,14.05
2023-03-22T08:18:51.365Z,14.98
2023-03-22T08:22:56.060Z,15.40
2023-03-22T08:27:02.855Z,13.98
2023-03-22T08:31:13.928Z,14.23
2023-03-22T08:35:18.295Z,13.20
2023-03-22T08:39:22.587Z,17.50
2023-03-22T08:43:32.610Z,11.35
2023-03-22T08:47:35.663Z,10.40
2023-03-22T08:51:38.682Z,9.60
2023-03-22T08:55:44.842Z,7.68
2023-03-22T08:59:50.279Z,7.47
2023-03-22T09:03:53.376Z,7.68
2023-03-22T09:08:06.349Z,7.18
2023-03-22T09:12:10.295Z,5.82
2023-03-22T09:16:17.613Z,6.88
2023-03-22T09:20:25.353Z,6.90
2023-03-22T09:24:29.532Z,5.60
2023-03-22T09:28:36.548Z,4.30
2023-03-22T09:32:43.807Z,6.55
2023-03-22T09:36:52.850Z,4.97
2023-03-22T09:41:01.052Z,7.10
2023-03-22T09:45:09.560Z,3.00
2023-03-22T09:49:17.630Z,3.47
2023-03-22T09:53:23.000Z,3.95
2023-03-22T09:57:40.868Z,4.47
2023-03-22T10:01:50.098Z,3.03
2023-03-22T10:06:03.436Z,4.03
2023-03-22T10:10:15.490Z,3.08
2023-03-22T10:14:30.862Z,3.20
2023-03-22T10:18:38.389Z,4.43
2023-03-22T10:22:53.912Z,5.30
2023-03-22T10:26:57.319Z,5.68
2023-03-22T10:31:00.797Z,5.93
2023-03-22T10:35:04.002Z,9.90
2023-03-22T10:39:16.852Z,6.07
2023-03-22T10:43:25.184Z,4.40
2023-03-22T10:47:33.824Z,6.97
2023-03-22T10:51:44.703Z,5.97
2023-03-22T10:55:49.443Z,7.28
2023-03-22T10:59:56.462Z,4.97
2023-03-22T11:04:07.573Z,4.50
2023-03-22T11:08:15.803Z,5.25
2023-03-22T11:12:20.911Z,12.50
2023-03-22T11:16:26.636Z,8.48
2023-03-22T11:20:35.074Z,5.53
2023-03-22T11:24:45.316Z,4.55
2023-03-22T11:28:53.034Z,4.90
2023-03-22T11:33:03.487Z,3.40
2023-03-22T11:37:09.444Z,3.35
2023-03-22T11:41:22.199Z,3.00
2023-03-22T11:45:29.254Z,8.40
2023-03-22T11:49:40.807Z,4.05
2023-03-22T11:53:46.982Z,3.90
2023-03-22T11:57:51.972Z,4.43
2023-03-22T12:02:03.154Z,4.00
2023-03-22T12:06:19.118Z,2.65
2023-03-22T12:10:27.697Z,3.28
2023-03-22T12:14:36.540Z,3.30
2023-03-22T12:18:48.712Z,2.97
2023-03-22T12:22:54.744Z,4.25
2023-03-22T12:27:02.470Z,2.67
2023-03-22T12:31:14.677Z,5.18
2023-03-22T12:35:24.275Z,3.88
2023-03-22T12:39:32.181Z,3.25
2023-03-22T12:43:51.041Z,2.50
2023-03-22T12:48:03.099Z,2.30
2023-03-22T12:52:19.013Z,3.28
2023-03-22T12:56:25.413Z,2.60
2023-03-22T13:00:33.946Z,2.60
2023-03-22T13:04:51.467Z,2.53
2023-03-22T13:09:16.222Z,2.65
2023-03-22T13:13:44.325Z,2.13
2023-03-22T13:17:47.921Z,1.90
2023-03-22T13:21:54.846Z,2.15
2023-03-22T13:26:06.061Z,2.15
2023-03-22T13:30:21.974Z,6.07
2023-03-22T13:34:34.316Z,2.58
2023-03-22T13:38:45.288Z,2.65
2023-03-22T13:42:49.841Z,2.72
2023-03-22T13:46:56.069Z,2.28
2023-03-22T13:51:00.799Z,3.20
2023-03-22T13:55:18.590Z,3.20
2023-03-22T13:59:27.623Z,2.10
2023-03-22T14:03:35.049Z,2.38
2023-03-22T14:07:44.365Z,3.03
2023-03-22T14:11:57.795Z,3.20
2023-03-22T14:16:09.868Z,3.22
2023-03-22T14:20:24.528Z,3.08
